sensor_id;sensor_type;location;lat;lon;timestamp;P1;durP1;ratioP1;P2;durP2;ratioP2
9106;SDS011;4589;48.690;8.952;2023-08-01T00:02:06;7.83;;;4.70;;
9106;SDS011;4589;48.690;8.952;2023-08-01T00:04:32;5.93;;;4.50;;
9106;SDS011;4589;48.690;8.952;2023-08-01T00:06:58;7.00;;;4.10;;
9106;SDS011;4589;48.690;8.952;2023-08-01T00:09:24;7.17;;;4.50;;
9106;SDS011;4589;48.690;8.952;2023-08-01T00:11:49;7.77;;;4.00;;
9106;SDS011;4589;48.690;8.952;2023-08-01T00:14:15;7.13;;;4.43;;
9106;SDS011;4589;48.690;8.952;2023-08-01T00:16:41;5.13;;;4.10;;
9106;SDS011;4589;48.690;8.952;2023-08-01T00:19:06;6.27;;;4.50;;
9106;SDS011;4589;48.690;8.952;2023-08-01T00:21:32;8.40;;;4.27;;
9106;SDS011;4589;48.690;8.952;2023-08-01T00:23:58;5.73;;;4.73;;
9106;SDS011;4589;48.690;8.952;2023-08-01T00:26:23;7.40;;;4.33;;
9106;SDS011;4589;48.690;8.952;2023-08-01T00:28:49;5.10;;;4.50;;
9106;SDS011;4589;48.690;8.952;2023-08-01T00:31:15;4.73;;;3.73;;
9106;SDS011;4589;48.690;8.952;2023-08-01T00:33:41;5.33;;;4.20;;
9106;SDS011;4589;48.690;8.952;2023-08-01T00:36:07;6.40;;;4.20;;
9106;SDS011;4589;48.690;8.952;2023-08-01T00:38:35;4.77;;;4.10;;
9106;SDS011;4589;48.690;8.952;2023-08-01T00:41:01;6.83;;;3.90;;
9106;SDS011;4589;48.690;8.952;2023-08-01T00:43:27;6.10;;;4.73;;
9106;SDS011;4589;48.690;8.952;2023-08-01T00:45:53;7.37;;;3.77;;
9106;SDS011;4589;48.690;8.952;2023-08-01T00:48:28;5.40;;;4.40;;
9106;SDS011;4589;48.690;8.952;2023-08-01T00:50:55;4.80;;;4.13;;
9106;SDS011;4589;48.690;8.952;2023-08-01T00:53:22;6.97;;;4.90;;
9106;SDS011;4589;48.690;8.952;2023-08-01T00:55:49;6.43;;;4.90;;
9106;SDS011;4589;48.690;8.952;2023-08-01T00:58:19;5.77;;;4.33;;
9106;SDS011;4589;48.690;8.952;2023-08-01T01:00:45;7.83;;;3.90;;
9106;SDS011;4589;48.690;8.952;2023-08-01T01:03:11;5.80;;;4.43;;
9106;SDS011;4589;48.690;8.952;2023-08-01T01:05:38;11.43;;;4.50;;
9106;SDS011;4589;48.690;8.952;2023-08-01T01:08:14;9.27;;;5.07;;
9106;SDS011;4589;48.690;8.952;2023-08-01T01:10:40;6.23;;;4.50;;
9106;SDS011;4589;48.690;8.952;2023-08-01T01:13:06;4.70;;;4.10;;
9106;SDS011;4589;48.690;8.952;2023-08-01T01:15:32;4.93;;;4.43;;
9106;SDS011;4589;48.690;8.952;2023-08-01T01:17:58;5.30;;;4.00;;
9106;SDS011;4589;48.690;8.952;2023-08-01T01:20:24;8.23;;;4.60;;
9106;SDS011;4589;48.690;8.952;2023-08-01T01:22:50;5.60;;;4.00;;
9106;SDS011;4589;48.690;8.952;2023-08-01T01:25:19;11.53;;;5.67;;
9106;SDS011;4589;48.690;8.952;2023-08-01T01:27:47;8.20;;;4.30;;
9106;SDS011;4589;48.690;8.952;2023-08-01T01:30:14;6.93;;;4.47;;
9106;SDS011;4589;48.690;8.952;2023-08-01T01:32:40;8.70;;;5.00;;
9106;SDS011;4589;48.690;8.952;2023-08-01T01:35:06;6.43;;;4.73;;
9106;SDS011;4589;48.690;8.952;2023-08-01T01:37:32;7.77;;;4.83;;
9106;SDS011;4589;48.690;8.952;2023-08-01T01:39:57;6.30;;;5.00;;
9106;SDS011;4589;48.690;8.952;2023-08-01T01:42:23;8.60;;;6.20;;
9106;SDS011;4589;48.690;8.952;2023-08-01T01:44:49;7.20;;;5.30;;
9106;SDS011;4589;48.690;8.952;2023-08-01T01:47:17;11.30;;;5.17;;
9106;SDS011;4589;48.690;8.952;2023-08-01T01:49:42;10.73;;;5.63;;
9106;SDS011;4589;48.690;8.952;2023-08-01T01:52:08;6.60;;;4.83;;
9106;SDS011;4589;48.690;8.952;2023-08-01T01:54:34;7.20;;;5.00;;
9106;SDS011;4589;48.690;8.952;2023-08-01T01:57:00;6.87;;;5.07;;
9106;SDS011;4589;48.690;8.952;2023-08-01T01:59:26;7.00;;;4.90;;
9106;SDS011;4589;48.690;8.952;2023-08-01T02:01:52;5.83;;;5.00;;
9106;SDS011;4589;48.690;8.952;2023-08-01T02:04:18;7.00;;;5.10;;
9106;SDS011;4589;48.690;8.952;2023-08-01T02:06:44;5.93;;;5.10;;
9106;SDS011;4589;48.690;8.952;2023-08-01T02:09:10;7.37;;;5.30;;
9106;SDS011;4589;48.690;8.952;2023-08-01T02:11:36;11.23;;;5.20;;
9106;SDS011;4589;48.690;8.952;2023-08-01T02:14:01;6.40;;;5.40;;
9106;SDS011;4589;48.690;8.952;2023-08-01T02:16:28;6.13;;;5.20;;
9106;SDS011;4589;48.690;8.952;2023-08-01T02:18:53;6.17;;;4.97;;
9106;SDS011;4589;48.690;8.952;2023-08-01T02:21:19;5.20;;;4.70;;
9106;SDS011;4589;48.690;8.952;2023-08-01T02:23:45;7.47;;;5.13;;
9106;SDS011;4589;48.690;8.952;2023-08-01T02:26:10;7.47;;;5.30;;
9106;SDS011;4589;48.690;8.952;2023-08-01T02:28:37;6.30;;;4.50;;
9106;SDS011;4589;48.690;8.952;2023-08-01T02:31:02;7.10;;;5.40;;
9106;SDS011;4589;48.690;8.952;2023-08-01T02:33:28;5.90;;;5.23;;
9106;SDS011;4589;48.690;8.952;2023-08-01T02:35:53;8.47;;;5.13;;
9106;SDS011;4589;48.690;8.952;2023-08-01T02:38:19;8.20;;;4.57;;
9106;SDS011;4589;48.690;8.952;2023-08-01T02:40:45;5.60;;;4.70;;
9106;SDS011;4589;48.690;8.952;2023-08-01T02:43:11;8.13;;;6.13;;
9106;SDS011;4589;48.690;8.952;2023-08-01T02:45:37;7.60;;;4.90;;
9106;SDS011;4589;48.690;8.952;2023-08-01T02:48:02;8.37;;;5.00;;
9106;SDS011;4589;48.690;8.952;2023-08-01T02:50:28;6.73;;;5.23;;
9106;SDS011;4589;48.690;8.952;2023-08-01T02:52:54;8.93;;;4.70;;
9106;SDS011;4589;48.690;8.952;2023-08-01T02:55:20;7.67;;;4.77;;
9106;SDS011;4589;48.690;8.952;2023-08-01T02:57:46;9.87;;;5.00;;
9106;SDS011;4589;48.690;8.952;2023-08-01T03:00:11;8.10;;;5.17;;
9106;SDS011;4589;48.690;8.952;2023-08-01T03:02:38;8.13;;;5.27;;
9106;SDS011;4589;48.690;8.952;2023-08-01T03:05:05;8.70;;;5.60;;
9106;SDS011;4589;48.690;8.952;2023-08-01T03:07:32;8.03;;;5.17;;
9106;SDS011;4589;48.690;8.952;2023-08-01T03:09:58;6.70;;;4.60;;
9106;SDS011;4589;48.690;8.952;2023-08-01T03:12:24;7.70;;;5.50;;
9106;SDS011;4589;48.690;8.952;2023-08-01T03:14:49;8.33;;;5.00;;
9106;SDS011;4589;48.690;8.952;2023-08-01T03:17:15;7.73;;;4.53;;
9106;SDS011;4589;48.690;8.952;2023-08-01T03:19:41;7.07;;;4.67;;
9106;SDS011;4589;48.690;8.952;2023-08-01T03:22:07;6.50;;;4.90;;
9106;SDS011;4589;48.690;8.952;2023-08-01T03:24:33;8.60;;;4.50;;
9106;SDS011;4589;48.690;8.952;2023-08-01T03:27:00;5.10;;;4.40;;
9106;SDS011;4589;48.690;8.952;2023-08-01T03:29:26;5.53;;;3.50;;
9106;SDS011;4589;48.690;8.952;2023-08-01T03:31:52;6.90;;;4.20;;
9106;SDS011;4589;48.690;8.952;2023-08-01T03:34:18;4.77;;;4.27;;
9106;SDS011;4589;48.690;8.952;2023-08-01T03:36:44;6.43;;;4.07;;
9106;SDS011;4589;48.690;8.952;2023-08-01T03:39:10;6.73;;;3.70;;
9106;SDS011;4589;48.690;8.952;2023-08-01T03:41:36;6.00;;;3.83;;
9106;SDS011;4589;48.690;8.952;2023-08-01T03:44:02;6.17;;;4.17;;
9106;SDS011;4589;48.690;8.952;2023-08-01T03:46:28;6.00;;;4.47;;
9106;SDS011;4589;48.690;8.952;2023-08-01T03:48:54;8.60;;;4.27;;
9106;SDS011;4589;48.690;8.952;2023-08-01T03:51:20;6.93;;;4.03;;
9106;SDS011;4589;48.690;8.952;2023-08-01T03:53:47;6.07;;;4.20;;
9106;SDS011;4589;48.690;8.952;2023-08-01T03:56:12;5.40;;;3.73;;
9106;SDS011;4589;48.690;8.952;2023-08-01T03:58:38;4.50;;;3.53;;
9106;SDS011;4589;48.690;8.952;2023-08-01T04:01:04;5.00;;;4.50;;
9106;SDS011;4589;48.690;8.952;2023-08-01T04:03:31;5.73;;;3.40;;
9106;SDS011;4589;48.690;8.952;2023-08-01T04:05:57;7.37;;;4.37;;
9106;SDS011;4589;48.690;8.952;2023-08-01T04:08:23;7.03;;;4.03;;
9106;SDS011;4589;48.690;8.952;2023-08-01T04:10:49;4.80;;;3.60;;
9106;SDS011;4589;48.690;8.952;2023-08-01T04:13:15;9.50;;;3.70;;
9106;SDS011;4589;48.690;8.952;2023-08-01T04:15:41;8.93;;;3.37;;
9106;SDS011;4589;48.690;8.952;2023-08-01T04:18:06;5.70;;;3.90;;
9106;SDS011;4589;48.690;8.952;2023-08-01T04:20:32;5.67;;;3.63;;
9106;SDS011;4589;48.690;8.952;2023-08-01T04:22:58;5.63;;;4.07;;
9106;SDS011;4589;48.690;8.952;2023-08-01T04:25:24;7.53;;;3.93;;
9106;SDS011;4589;48.690;8.952;2023-08-01T04:27:51;7.80;;;4.10;;
9106;SDS011;4589;48.690;8.952;2023-08-01T04:30:17;5.70;;;4.00;;
9106;SDS011;4589;48.690;8.952;2023-08-01T04:32:43;9.57;;;4.40;;
9106;SDS011;4589;48.690;8.952;2023-08-01T04:35:09;11.13;;;4.33;;
9106;SDS011;4589;48.690;8.952;2023-08-01T04:37:35;4.70;;;3.90;;
9106;SDS011;4589;48.690;8.952;2023-08-01T04:40:01;6.50;;;4.40;;
9106;SDS011;4589;48.690;8.952;2023-08-01T04:42:27;7.00;;;4.00;;
9106;SDS011;4589;48.690;8.952;2023-08-01T04:44:53;6.33;;;3.70;;
9106;SDS011;4589;48.690;8.952;2023-08-01T04:47:19;4.43;;;3.80;;
9106;SDS011;4589;48.690;8.952;2023-08-01T04:49:45;5.03;;;3.73;;
9106;SDS011;4589;48.690;8.952;2023-08-01T04:52:11;5.90;;;3.93;;
9106;SDS011;4589;48.690;8.952;2023-08-01T04:54:37;7.53;;;4.97;;
9106;SDS011;4589;48.690;8.952;2023-08-01T04:57:03;5.00;;;4.47;;
9106;SDS011;4589;48.690;8.952;2023-08-01T04:59:29;8.50;;;4.87;;
9106;SDS011;4589;48.690;8.952;2023-08-01T05:01:54;7.33;;;3.97;;
9106;SDS011;4589;48.690;8.952;2023-08-01T05:04:20;4.63;;;3.90;;
9106;SDS011;4589;48.690;8.952;2023-08-01T05:06:46;4.90;;;3.87;;
9106;SDS011;4589;48.690;8.952;2023-08-01T05:09:12;5.07;;;4.10;;
9106;SDS011;4589;48.690;8.952;2023-08-01T05:11:38;7.53;;;4.03;;
9106;SDS011;4589;48.690;8.952;2023-08-01T05:14:03;9.10;;;4.17;;
9106;SDS011;4589;48.690;8.952;2023-08-01T05:16:29;7.77;;;5.17;;
9106;SDS011;4589;48.690;8.952;2023-08-01T05:18:55;6.60;;;4.63;;
9106;SDS011;4589;48.690;8.952;2023-08-01T05:21:21;7.30;;;4.33;;
9106;SDS011;4589;48.690;8.952;2023-08-01T05:23:47;8.77;;;4.77;;
9106;SDS011;4589;48.690;8.952;2023-08-01T05:26:13;4.70;;;3.43;;
9106;SDS011;4589;48.690;8.952;2023-08-01T05:28:39;5.20;;;4.23;;
9106;SDS011;4589;48.690;8.952;2023-08-01T05:31:04;4.87;;;3.73;;
9106;SDS011;4589;48.690;8.952;2023-08-01T05:33:30;8.80;;;4.17;;
9106;SDS011;4589;48.690;8.952;2023-08-01T05:35:56;10.57;;;4.60;;
9106;SDS011;4589;48.690;8.952;2023-08-01T05:38:22;5.33;;;3.90;;
9106;SDS011;4589;48.690;8.952;2023-08-01T05:40:47;5.10;;;3.77;;
9106;SDS011;4589;48.690;8.952;2023-08-01T05:43:13;7.03;;;4.20;;
9106;SDS011;4589;48.690;8.952;2023-08-01T05:45:38;8.07;;;3.80;;
9106;SDS011;4589;48.690;8.952;2023-08-01T05:48:04;4.60;;;3.97;;
9106;SDS011;4589;48.690;8.952;2023-08-01T05:50:30;7.27;;;3.87;;
9106;SDS011;4589;48.690;8.952;2023-08-01T05:52:56;3.57;;;3.27;;
9106;SDS011;4589;48.690;8.952;2023-08-01T05:55:22;5.70;;;4.07;;
9106;SDS011;4589;48.690;8.952;2023-08-01T05:57:47;6.10;;;3.93;;
9106;SDS011;4589;48.690;8.952;2023-08-01T06:00:17;4.20;;;3.77;;
9106;SDS011;4589;48.690;8.952;2023-08-01T06:02:45;8.43;;;3.60;;
9106;SDS011;4589;48.690;8.952;2023-08-01T06:05:11;5.13;;;3.97;;
9106;SDS011;4589;48.690;8.952;2023-08-01T06:07:36;4.90;;;3.37;;
9106;SDS011;4589;48.690;8.952;2023-08-01T06:10:03;5.40;;;3.33;;
9106;SDS011;4589;48.690;8.952;2023-08-01T06:12:29;4.17;;;3.30;;
9106;SDS011;4589;48.690;8.952;2023-08-01T06:14:55;4.67;;;3.40;;
9106;SDS011;4589;48.690;8.952;2023-08-01T06:17:21;8.23;;;4.60;;
9106;SDS011;4589;48.690;8.952;2023-08-01T06:19:47;6.20;;;3.90;;
9106;SDS011;4589;48.690;8.952;2023-08-01T06:22:14;5.83;;;4.30;;
9106;SDS011;4589;48.690;8.952;2023-08-01T06:24:40;7.10;;;4.70;;
9106;SDS011;4589;48.690;8.952;2023-08-01T06:27:06;4.27;;;3.80;;
9106;SDS011;4589;48.690;8.952;2023-08-01T06:29:32;4.87;;;3.83;;
9106;SDS011;4589;48.690;8.952;2023-08-01T06:31:58;8.60;;;4.30;;
9106;SDS011;4589;48.690;8.952;2023-08-01T06:34:24;6.50;;;4.43;;
9106;SDS011;4589;48.690;8.952;2023-08-01T06:36:50;6.30;;;5.03;;
9106;SDS011;4589;48.690;8.952;2023-08-01T06:39:16;6.50;;;5.90;;
9106;SDS011;4589;48.690;8.952;2023-08-01T06:41:42;8.20;;;5.37;;
9106;SDS011;4589;48.690;8.952;2023-08-01T06:44:08;8.33;;;5.20;;
9106;SDS011;4589;48.690;8.952;2023-08-01T06:46:33;10.10;;;5.80;;
9106;SDS011;4589;48.690;8.952;2023-08-01T06:48:59;13.80;;;5.60;;
9106;SDS011;4589;48.690;8.952;2023-08-01T06:51:25;10.87;;;5.50;;
9106;SDS011;4589;48.690;8.952;2023-08-01T06:53:51;6.53;;;5.53;;
9106;SDS011;4589;48.690;8.952;2023-08-01T06:56:17;6.80;;;5.67;;
9106;SDS011;4589;48.690;8.952;2023-08-01T06:58:43;7.00;;;5.13;;
9106;SDS011;4589;48.690;8.952;2023-08-01T07:01:08;6.67;;;4.40;;
9106;SDS011;4589;48.690;8.952;2023-08-01T07:03:34;5.67;;;5.00;;
9106;SDS011;4589;48.690;8.952;2023-08-01T07:05:59;5.40;;;4.20;;
9106;SDS011;4589;48.690;8.952;2023-08-01T07:08:25;7.33;;;4.30;;
9106;SDS011;4589;48.690;8.952;2023-08-01T07:10:51;6.87;;;5.17;;
9106;SDS011;4589;48.690;8.952;2023-08-01T07:13:17;7.50;;;4.90;;
9106;SDS011;4589;48.690;8.952;2023-08-01T07:15:44;7.00;;;5.13;;
9106;SDS011;4589;48.690;8.952;2023-08-01T07:18:10;7.70;;;4.63;;
9106;SDS011;4589;48.690;8.952;2023-08-01T07:20:36;7.67;;;4.60;;
9106;SDS011;4589;48.690;8.952;2023-08-01T07:23:02;5.57;;;4.70;;
9106;SDS011;4589;48.690;8.952;2023-08-01T07:25:27;6.30;;;4.87;;
9106;SDS011;4589;48.690;8.952;2023-08-01T07:27:53;5.40;;;4.50;;
9106;SDS011;4589;48.690;8.952;2023-08-01T07:30:18;9.43;;;4.13;;
9106;SDS011;4589;48.690;8.952;2023-08-01T07:32:44;7.43;;;3.57;;
9106;SDS011;4589;48.690;8.952;2023-08-01T07:35:12;5.73;;;4.17;;
9106;SDS011;4589;48.690;8.952;2023-08-01T07:37:38;5.20;;;3.87;;
9106;SDS011;4589;48.690;8.952;2023-08-01T07:40:07;6.43;;;4.10;;
9106;SDS011;4589;48.690;8.952;2023-08-01T07:42:33;18.10;;;4.33;;
9106;SDS011;4589;48.690;8.952;2023-08-01T07:44:59;5.20;;;3.63;;
9106;SDS011;4589;48.690;8.952;2023-08-01T07:47:25;4.20;;;3.70;;
9106;SDS011;4589;48.690;8.952;2023-08-01T07:49:51;7.90;;;3.90;;
9106;SDS011;4589;48.690;8.952;2023-08-01T07:52:18;6.40;;;3.70;;
9106;SDS011;4589;48.690;8.952;2023-08-01T07:54:44;5.00;;;3.40;;
9106;SDS011;4589;48.690;8.952;2023-08-01T07:57:10;4.27;;;3.27;;
9106;SDS011;4589;48.690;8.952;2023-08-01T07:59:36;5.23;;;3.23;;
9106;SDS011;4589;48.690;8.952;2023-08-01T08:02:02;5.53;;;3.13;;
9106;SDS011;4589;48.690;8.952;2023-08-01T08:04:28;5.83;;;3.57;;
9106;SDS011;4589;48.690;8.952;2023-08-01T08:06:54;4.90;;;3.47;;
9106;SDS011;4589;48.690;8.952;2023-08-01T08:09:24;4.33;;;2.87;;
9106;SDS011;4589;48.690;8.952;2023-08-01T08:11:50;7.63;;;3.83;;
9106;SDS011;4589;48.690;8.952;2023-08-01T08:14:17;4.17;;;3.20;;
9106;SDS011;4589;48.690;8.952;2023-08-01T08:16:45;4.33;;;3.67;;
9106;SDS011;4589;48.690;8.952;2023-08-01T08:19:11;3.47;;;3.17;;
9106;SDS011;4589;48.690;8.952;2023-08-01T08:21:37;3.53;;;3.00;;
9106;SDS011;4589;48.690;8.952;2023-08-01T08:24:03;4.50;;;3.67;;
9106;SDS011;4589;48.690;8.952;2023-08-01T08:26:29;5.53;;;3.23;;
9106;SDS011;4589;48.690;8.952;2023-08-01T08:28:54;4.43;;;3.00;;
9106;SDS011;4589;48.690;8.952;2023-08-01T08:31:20;4.50;;;3.60;;
9106;SDS011;4589;48.690;8.952;2023-08-01T08:33:45;5.30;;;3.37;;
9106;SDS011;4589;48.690;8.952;2023-08-01T08:36:11;4.20;;;3.60;;
9106;SDS011;4589;48.690;8.952;2023-08-01T08:38:37;7.63;;;3.90;;
9106;SDS011;4589;48.690;8.952;2023-08-01T08:41:13;7.27;;;3.83;;
9106;SDS011;4589;48.690;8.952;2023-08-01T08:43:39;5.17;;;3.70;;
9106;SDS011;4589;48.690;8.952;2023-08-01T08:46:06;4.53;;;4.10;;
9106;SDS011;4589;48.690;8.952;2023-08-01T08:48:34;3.47;;;3.17;;
9106;SDS011;4589;48.690;8.952;2023-08-01T08:51:02;5.00;;;3.50;;
9106;SDS011;4589;48.690;8.952;2023-08-01T08:53:28;5.70;;;3.67;;
9106;SDS011;4589;48.690;8.952;2023-08-01T08:55:56;5.60;;;3.60;;
9106;SDS011;4589;48.690;8.952;2023-08-01T08:58:22;2.77;;;2.43;;
9106;SDS011;4589;48.690;8.952;2023-08-01T09:00:48;5.43;;;3.37;;
9106;SDS011;4589;48.690;8.952;2023-08-01T09:03:15;6.40;;;3.17;;
9106;SDS011;4589;48.690;8.952;2023-08-01T09:05:45;3.33;;;3.00;;
9106;SDS011;4589;48.690;8.952;2023-08-01T09:08:16;3.80;;;2.60;;
9106;SDS011;4589;48.690;8.952;2023-08-01T09:10:44;3.27;;;2.40;;
9106;SDS011;4589;48.690;8.952;2023-08-01T09:13:10;1.60;;;1.43;;
9106;SDS011;4589;48.690;8.952;2023-08-01T09:15:36;2.40;;;2.00;;
9106;SDS011;4589;48.690;8.952;2023-08-01T09:18:05;2.03;;;1.70;;
9106;SDS011;4589;48.690;8.952;2023-08-01T09:20:44;3.00;;;1.80;;
9106;SDS011;4589;48.690;8.952;2023-08-01T09:23:11;1.90;;;1.37;;
9106;SDS011;4589;48.690;8.952;2023-08-01T09:25:37;1.50;;;1.30;;
9106;SDS011;4589;48.690;8.952;2023-08-01T09:28:03;1.60;;;1.50;;
9106;SDS011;4589;48.690;8.952;2023-08-01T09:30:53;6.03;;;1.90;;
9106;SDS011;4589;48.690;8.952;2023-08-01T09:33:20;2.10;;;1.50;;
9106;SDS011;4589;48.690;8.952;2023-08-01T09:35:48;1.60;;;1.30;;
9106;SDS011;4589;48.690;8.952;2023-08-01T09:38:15;2.93;;;1.60;;
9106;SDS011;4589;48.690;8.952;2023-08-01T09:40:42;1.73;;;0.97;;
9106;SDS011;4589;48.690;8.952;2023-08-01T09:43:09;3.10;;;1.13;;
9106;SDS011;4589;48.690;8.952;2023-08-01T09:45:36;1.70;;;1.33;;
9106;SDS011;4589;48.690;8.952;2023-08-01T09:48:02;2.47;;;1.70;;
9106;SDS011;4589;48.690;8.952;2023-08-01T09:50:28;1.40;;;1.10;;
9106;SDS011;4589;48.690;8.952;2023-08-01T09:52:54;1.30;;;1.20;;
9106;SDS011;4589;48.690;8.952;2023-08-01T09:55:30;1.60;;;1.00;;
9106;SDS011;4589;48.690;8.952;2023-08-01T09:57:57;1.70;;;1.43;;
9106;SDS011;4589;48.690;8.952;2023-08-01T10:00:27;1.20;;;1.00;;
9106;SDS011;4589;48.690;8.952;2023-08-01T10:02:54;1.17;;;1.00;;
9106;SDS011;4589;48.690;8.952;2023-08-01T10:05:25;1.10;;;0.97;;
9106;SDS011;4589;48.690;8.952;2023-08-01T10:07:56;1.73;;;1.30;;
9106;SDS011;4589;48.690;8.952;2023-08-01T10:10:24;1.43;;;1.27;;
9106;SDS011;4589;48.690;8.952;2023-08-01T10:12:50;1.17;;;1.00;;
9106;SDS011;4589;48.690;8.952;2023-08-01T10:15:17;1.50;;;1.10;;
9106;SDS011;4589;48.690;8.952;2023-08-01T10:17:43;1.20;;;0.90;;
9106;SDS011;4589;48.690;8.952;2023-08-01T10:20:09;1.77;;;1.20;;
9106;SDS011;4589;48.690;8.952;2023-08-01T10:22:37;1.20;;;1.10;;
9106;SDS011;4589;48.690;8.952;2023-08-01T10:25:04;1.90;;;1.30;;
9106;SDS011;4589;48.690;8.952;2023-08-01T10:27:32;2.17;;;1.10;;
9106;SDS011;4589;48.690;8.952;2023-08-01T10:30:01;1.30;;;1.20;;
9106;SDS011;4589;48.690;8.952;2023-08-01T10:32:32;1.67;;;1.00;;
9106;SDS011;4589;48.690;8.952;2023-08-01T10:34:59;1.43;;;1.10;;
9106;SDS011;4589;48.690;8.952;2023-08-01T10:37:25;1.40;;;1.30;;
9106;SDS011;4589;48.690;8.952;2023-08-01T10:39:58;1.20;;;1.10;;
9106;SDS011;4589;48.690;8.952;2023-08-01T10:42:36;4.80;;;1.43;;
9106;SDS011;4589;48.690;8.952;2023-08-01T10:45:07;1.20;;;1.10;;
9106;SDS011;4589;48.690;8.952;2023-08-01T10:47:44;1.00;;;0.90;;
9106;SDS011;4589;48.690;8.952;2023-08-01T10:50:16;1.20;;;1.10;;
9106;SDS011;4589;48.690;8.952;2023-08-01T10:52:42;1.20;;;1.10;;
9106;SDS011;4589;48.690;8.952;2023-08-01T10:55:08;2.00;;;1.37;;
9106;SDS011;4589;48.690;8.952;2023-08-01T10:57:35;1.83;;;1.20;;
9106;SDS011;4589;48.690;8.952;2023-08-01T11:00:03;2.20;;;1.10;;
9106;SDS011;4589;48.690;8.952;2023-08-01T11:02:34;1.50;;;1.20;;
9106;SDS011;4589;48.690;8.952;2023-08-01T11:05:02;2.20;;;1.37;;
9106;SDS011;4589;48.690;8.952;2023-08-01T11:07:32;1.40;;;1.20;;
9106;SDS011;4589;48.690;8.952;2023-08-01T11:10:08;1.40;;;1.20;;
9106;SDS011;4589;48.690;8.952;2023-08-01T11:12:42;2.23;;;1.37;;
9106;SDS011;4589;48.690;8.952;2023-08-01T11:15:10;1.23;;;1.13;;
9106;SDS011;4589;48.690;8.952;2023-08-01T11:17:37;1.60;;;1.40;;
9106;SDS011;4589;48.690;8.952;2023-08-01T11:20:04;1.80;;;1.13;;
9106;SDS011;4589;48.690;8.952;2023-08-01T11:22:32;1.67;;;1.20;;
9106;SDS011;4589;48.690;8.952;2023-08-01T11:24:58;5.63;;;1.27;;
9106;SDS011;4589;48.690;8.952;2023-08-01T11:27:24;1.50;;;1.20;;
9106;SDS011;4589;48.690;8.952;2023-08-01T11:29:50;2.60;;;1.30;;
9106;SDS011;4589;48.690;8.952;2023-08-01T11:32:17;1.70;;;1.17;;
9106;SDS011;4589;48.690;8.952;2023-08-01T11:34:45;1.70;;;1.30;;
9106;SDS011;4589;48.690;8.952;2023-08-01T11:37:11;2.53;;;1.17;;
9106;SDS011;4589;48.690;8.952;2023-08-01T11:39:45;2.03;;;1.30;;
9106;SDS011;4589;48.690;8.952;2023-08-01T11:42:15;2.07;;;1.40;;
9106;SDS011;4589;48.690;8.952;2023-08-01T11:44:42;1.67;;;1.53;;
9106;SDS011;4589;48.690;8.952;2023-08-01T11:47:12;1.63;;;1.43;;
9106;SDS011;4589;48.690;8.952;2023-08-01T11:49:39;1.30;;;1.10;;
9106;SDS011;4589;48.690;8.952;2023-08-01T11:52:09;3.20;;;1.30;;
9106;SDS011;4589;48.690;8.952;2023-08-01T11:54:43;1.77;;;1.30;;
9106;SDS011;4589;48.690;8.952;2023-08-01T11:57:10;1.30;;;1.10;;
9106;SDS011;4589;48.690;8.952;2023-08-01T11:59:45;1.73;;;1.20;;
9106;SDS011;4589;48.690;8.952;2023-08-01T12:02:19;2.53;;;1.20;;
9106;SDS011;4589;48.690;8.952;2023-08-01T12:04:52;1.50;;;1.40;;
9106;SDS011;4589;48.690;8.952;2023-08-01T12:07:19;1.70;;;1.40;;
9106;SDS011;4589;48.690;8.952;2023-08-01T12:09:55;1.67;;;1.57;;
9106;SDS011;4589;48.690;8.952;2023-08-01T12:12:22;1.60;;;1.37;;
9106;SDS011;4589;48.690;8.952;2023-08-01T12:14:48;1.60;;;1.50;;
9106;SDS011;4589;48.690;8.952;2023-08-01T12:17:14;2.87;;;1.30;;
9106;SDS011;4589;48.690;8.952;2023-08-01T12:19:39;3.33;;;1.40;;
9106;SDS011;4589;48.690;8.952;2023-08-01T12:22:05;1.40;;;1.30;;
9106;SDS011;4589;48.690;8.952;2023-08-01T12:24:31;1.83;;;1.37;;
9106;SDS011;4589;48.690;8.952;2023-08-01T12:26:58;1.50;;;1.20;;
9106;SDS011;4589;48.690;8.952;2023-08-01T12:29:24;3.00;;;1.40;;
9106;SDS011;4589;48.690;8.952;2023-08-01T12:31:50;2.27;;;1.43;;
9106;SDS011;4589;48.690;8.952;2023-08-01T12:34:16;1.80;;;1.30;;
9106;SDS011;4589;48.690;8.952;2023-08-01T12:36:42;3.20;;;1.57;;
9106;SDS011;4589;48.690;8.952;2023-08-01T12:39:08;1.80;;;1.50;;
9106;SDS011;4589;48.690;8.952;2023-08-01T12:41:37;1.60;;;1.50;;
9106;SDS011;4589;48.690;8.952;2023-08-01T12:44:03;2.17;;;1.43;;
9106;SDS011;4589;48.690;8.952;2023-08-01T12:46:30;2.33;;;1.57;;
9106;SDS011;4589;48.690;8.952;2023-08-01T12:48:55;2.00;;;1.20;;
9106;SDS011;4589;48.690;8.952;2023-08-01T12:51:21;3.80;;;2.30;;
9106;SDS011;4589;48.690;8.952;2023-08-01T12:53:47;1.97;;;1.50;;
9106;SDS011;4589;48.690;8.952;2023-08-01T12:56:13;2.50;;;1.47;;
9106;SDS011;4589;48.690;8.952;2023-08-01T12:58:39;1.80;;;1.70;;
9106;SDS011;4589;48.690;8.952;2023-08-01T13:01:05;1.87;;;1.70;;
9106;SDS011;4589;48.690;8.952;2023-08-01T13:03:31;1.73;;;1.30;;
9106;SDS011;4589;48.690;8.952;2023-08-01T13:05:58;3.67;;;1.60;;
9106;SDS011;4589;48.690;8.952;2023-08-01T13:08:23;1.70;;;1.50;;
9106;SDS011;4589;48.690;8.952;2023-08-01T13:10:49;1.90;;;1.63;;
9106;SDS011;4589;48.690;8.952;2023-08-01T13:13:16;1.93;;;1.70;;
9106;SDS011;4589;48.690;8.952;2023-08-01T13:15:41;1.50;;;1.40;;
9106;SDS011;4589;48.690;8.952;2023-08-01T13:18:07;1.80;;;1.60;;
9106;SDS011;4589;48.690;8.952;2023-08-01T13:20:34;1.50;;;1.40;;
9106;SDS011;4589;48.690;8.952;2023-08-01T13:23:01;1.80;;;1.63;;
9106;SDS011;4589;48.690;8.952;2023-08-01T13:25:27;3.40;;;1.70;;
9106;SDS011;4589;48.690;8.952;2023-08-01T13:27:53;4.70;;;1.63;;
9106;SDS011;4589;48.690;8.952;2023-08-01T13:30:18;2.23;;;1.63;;
9106;SDS011;4589;48.690;8.952;2023-08-01T13:32:45;2.10;;;1.80;;
9106;SDS011;4589;48.690;8.952;2023-08-01T13:35:11;3.00;;;1.60;;
9106;SDS011;4589;48.690;8.952;2023-08-01T13:37:37;1.60;;;1.43;;
9106;SDS011;4589;48.690;8.952;2023-08-01T13:40:03;2.13;;;1.63;;
9106;SDS011;4589;48.690;8.952;2023-08-01T13:42:29;2.90;;;1.70;;
9106;SDS011;4589;48.690;8.952;2023-08-01T13:44:55;1.60;;;1.50;;
9106;SDS011;4589;48.690;8.952;2023-08-01T13:47:21;7.17;;;1.97;;
9106;SDS011;4589;48.690;8.952;2023-08-01T13:49:47;2.63;;;1.57;;
9106;SDS011;4589;48.690;8.952;2023-08-01T13:52:13;3.00;;;2.00;;
9106;SDS011;4589;48.690;8.952;2023-08-01T13:54:39;4.03;;;1.60;;
9106;SDS011;4589;48.690;8.952;2023-08-01T13:57:05;1.90;;;1.60;;
9106;SDS011;4589;48.690;8.952;2023-08-01T13:59:31;3.20;;;1.70;;
9106;SDS011;4589;48.690;8.952;2023-08-01T14:01:56;3.20;;;1.60;;
9106;SDS011;4589;48.690;8.952;2023-08-01T14:04:22;3.40;;;1.80;;
9106;SDS011;4589;48.690;8.952;2023-08-01T14:06:48;2.20;;;1.70;;
9106;SDS011;4589;48.690;8.952;2023-08-01T14:09:14;1.90;;;1.80;;
9106;SDS011;4589;48.690;8.952;2023-08-01T14:11:40;2.43;;;1.60;;
9106;SDS011;4589;48.690;8.952;2023-08-01T14:14:05;2.13;;;1.70;;
9106;SDS011;4589;48.690;8.952;2023-08-01T14:16:31;1.83;;;1.73;;
9106;SDS011;4589;48.690;8.952;2023-08-01T14:19:00;2.20;;;1.60;;
9106;SDS011;4589;48.690;8.952;2023-08-01T14:21:26;1.93;;;1.57;;
9106;SDS011;4589;48.690;8.952;2023-08-01T14:23:52;4.83;;;1.50;;
9106;SDS011;4589;48.690;8.952;2023-08-01T14:26:18;15.20;;;1.97;;
9106;SDS011;4589;48.690;8.952;2023-08-01T14:28:43;1.80;;;1.70;;
9106;SDS011;4589;48.690;8.952;2023-08-01T14:31:09;2.30;;;2.10;;
9106;SDS011;4589;48.690;8.952;2023-08-01T14:33:34;4.73;;;1.83;;
9106;SDS011;4589;48.690;8.952;2023-08-01T14:36:00;1.70;;;1.60;;
9106;SDS011;4589;48.690;8.952;2023-08-01T14:38:26;1.93;;;1.73;;
9106;SDS011;4589;48.690;8.952;2023-08-01T14:40:52;1.83;;;1.70;;
9106;SDS011;4589;48.690;8.952;2023-08-01T14:43:18;3.63;;;1.60;;
9106;SDS011;4589;48.690;8.952;2023-08-01T14:45:44;3.00;;;2.13;;
9106;SDS011;4589;48.690;8.952;2023-08-01T14:48:10;2.07;;;1.37;;
9106;SDS011;4589;48.690;8.952;2023-08-01T14:50:37;2.57;;;1.80;;
9106;SDS011;4589;48.690;8.952;2023-08-01T14:53:03;1.90;;;1.80;;
9106;SDS011;4589;48.690;8.952;2023-08-01T14:55:31;2.40;;;1.77;;
9106;SDS011;4589;48.690;8.952;2023-08-01T14:57:57;2.10;;;1.53;;
9106;SDS011;4589;48.690;8.952;2023-08-01T15:00:23;2.40;;;1.87;;
9106;SDS011;4589;48.690;8.952;2023-08-01T15:02:48;2.70;;;1.60;;
9106;SDS011;4589;48.690;8.952;2023-08-01T15:05:14;1.70;;;1.53;;
9106;SDS011;4589;48.690;8.952;2023-08-01T15:07:40;3.40;;;1.60;;
9106;SDS011;4589;48.690;8.952;2023-08-01T15:10:06;1.87;;;1.77;;
9106;SDS011;4589;48.690;8.952;2023-08-01T15:12:32;1.60;;;1.40;;